Time;durP1;ratioP1;P1;durP2;ratioP2;P2;SDS_P1;SDS_P2;PMS_P1;PMS_P2;Temp;Humidity;BMP_temperature;BMP_pressure;BME280_temperature;BME280_humidity;BME280_pressure;Samples;Min_cycle;Max_cycle;Signal;HPM_P1;HPM_P2
2023/03/28 00:00:11;;;;;;;4.43;1.00;;;2.60;99.90;;;;;;4987131;28;20405;-64
2023/03/28 00:02:38;;;;;;;5.20;1.30;;;2.60;99.90;;;;;;4964724;28;27109;-64
2023/03/28 00:05:06;;;;;;;7.47;0.97;;;2.60;99.90;;;;;;5015807;28;20238;-64
2023/03/28 00:07:33;;;;;;;8.97;2.00;;;2.70;99.90;;;;;;5022246;28;20578;-64
2023/03/28 00:10:00;;;;;;;1.83;0.97;;;2.70;99.90;;;;;;5012410;28;20207;-64
2023/03/28 00:12:29;;;;;;;9.70;1.57;;;2.70;99.90;;;;;;5019264;28;20477;-64
2023/03/28 00:14:56;;;;;;;10.90;1.23;;;2.70;99.90;;;;;;5008786;28;20231;-64
2023/03/28 00:17:23;;;;;;;6.60;1.60;;;2.70;99.90;;;;;;4982896;28;21493;-64
2023/03/28 00:19:52;;;;;;;3.90;1.37;;;2.80;99.90;;;;;;5024990;28;20199;-64
2023/03/28 00:22:19;;;;;;;3.93;1.13;;;2.80;99.90;;;;;;5025284;28;20196;-64
2023/03/28 00:24:47;;;;;;;6.53;1.37;;;2.80;99.90;;;;;;5017289;28;20572;-64
2023/03/28 00:27:14;;;;;;;8.00;1.47;;;2.70;99.90;;;;;;5023642;28;20242;-64
2023/03/28 00:29:42;;;;;;;2.33;0.93;;;2.60;99.90;;;;;;5006674;28;20525;-64
2023/03/28 00:32:09;;;;;;;2.47;0.90;;;2.60;99.90;;;;;;5010443;28;20191;-64
2023/03/28 00:34:36;;;;;;;6.40;0.90;;;2.50;99.90;;;;;;4965500;28;20217;-64
2023/03/28 00:37:03;;;;;;;2.63;0.80;;;2.50;99.90;;;;;;4991761;28;20200;-64
2023/03/28 00:39:30;;;;;;;1.83;0.70;;;2.50;99.90;;;;;;5007525;28;20275;-64
2023/03/28 00:42:01;;;;;;;8.37;1.70;;;2.50;99.90;;;;;;4989422;28;21823;-64
2023/03/28 00:44:49;;;;;;;7.73;1.10;;;2.50;99.90;;;;;;5001208;28;20306;-64
2023/03/28 00:47:37;;;;;;;0.70;0.70;;;2.50;99.90;;;;;;5028876;28;20209;-64
2023/03/28 00:50:10;;;;;;;5.90;1.03;;;2.50;99.90;;;;;;4989835;28;20583;-64
2023/03/28 00:52:41;;;;;;;0.63;0.53;;;2.60;99.90;;;;;;5015308;28;20206;-64
2023/03/28 00:55:13;;;;;;;8.03;1.50;;;2.60;99.90;;;;;;5023571;28;20628;-64
2023/03/28 00:57:40;;;;;;;9.30;1.60;;;2.60;99.90;;;;;;4993166;28;20606;-64
2023/03/28 01:00:11;;;;;;;5.37;1.00;;;2.60;99.90;;;;;;5024592;28;20218;-64
2023/03/28 01:02:41;;;;;;;3.23;1.03;;;2.60;99.90;;;;;;4992132;28;20205;-64
2023/03/28 01:05:09;;;;;;;4.63;1.10;;;2.60;99.90;;;;;;4986021;28;20251;-64
2023/03/28 01:07:44;;;;;;;2.03;0.67;;;2.60;99.90;;;;;;5005666;28;20407;-64
2023/03/28 01:10:12;;;;;;;2.33;0.97;;;2.60;99.90;;;;;;5021210;28;20214;-64
2023/03/28 01:12:41;;;;;;;3.17;1.00;;;2.60;99.90;;;;;;5002536;28;20405;-64
2023/03/28 01:15:11;;;;;;;4.53;1.40;;;2.50;99.90;;;;;;5021451;28;20198;-64
2023/03/28 01:17:40;;;;;;;5.87;1.00;;;2.50;99.90;;;;;;5003797;28;20203;-64
2023/03/28 01:20:25;;;;;;;7.20;1.20;;;2.50;99.90;;;;;;5012144;28;20216;-64
2023/03/28 01:23:24;;;;;;;6.20;0.77;;;2.50;99.90;;;;;;4993079;28;20305;-64
2023/03/28 01:26:36;;;;;;;2.80;1.00;;;2.50;99.90;;;;;;4988195;28;20521;-64
2023/03/28 01:29:25;;;;;;;9.30;1.30;;;2.40;99.90;;;;;;5019288;28;20735;-64
2023/03/28 01:32:15;;;;;;;9.47;1.23;;;2.40;99.90;;;;;;5007651;28;20438;-64
2023/03/28 01:35:06;;;;;;;2.43;1.17;;;3.10;99.90;;;;;;5011066;28;20703;-64
2023/03/28 01:37:41;;;;;;;3.17;0.87;;;2.40;99.90;;;;;;4982059;28;20219;-64
2023/03/28 01:40:26;;;;;;;4.33;0.90;;;2.40;99.90;;;;;;5020968;28;20713;-64
2023/03/28 01:43:05;;;;;;;5.73;1.37;;;2.40;99.90;;;;;;5005539;28;20335;-64
2023/03/28 01:45:40;;;;;;;5.57;0.90;;;2.40;99.90;;;;;;5018465;28;20227;-64
2023/03/28 01:48:17;;;;;;;3.17;0.90;;;2.40;99.90;;;;;;5005141;28;20207;-64
2023/03/28 01:50:47;;;;;;;8.53;1.10;;;2.40;99.90;;;;;;5005889;28;20365;-64
2023/03/28 01:53:21;;;;;;;4.57;0.90;;;2.40;99.90;;;;;;4990695;28;20664;-64
2023/03/28 01:55:52;;;;;;;2.67;1.20;;;2.40;99.90;;;;;;5010696;28;20204;-64
2023/03/28 01:58:28;;;;;;;3.00;0.80;;;2.30;99.90;;;;;;4997592;28;20223;-64
2023/03/28 02:01:01;;;;;;;5.20;1.23;;;2.30;99.90;;;;;;5018551;28;20450;-64
2023/03/28 02:03:31;;;;;;;10.93;0.93;;;2.30;99.90;;;;;;5001905;28;20203;-64
2023/03/28 02:06:00;;;;;;;4.53;1.30;;;2.30;99.90;;;;;;5010144;28;20228;-64
2023/03/28 02:08:32;;;;;;;2.80;1.00;;;2.30;99.90;;;;;;4984139;28;20213;-64
2023/03/28 02:10:59;;;;;;;5.50;0.70;;;2.40;99.90;;;;;;5013197;28;20681;-64
2023/03/28 02:13:29;;;;;;;6.43;0.70;;;2.40;99.90;;;;;;5005735;28;20212;-64
2023/03/28 02:15:59;;;;;;;4.10;1.23;;;2.30;99.90;;;;;;5017705;28;20488;-64
2023/03/28 02:18:31;;;;;;;4.10;0.90;;;2.30;99.90;;;;;;5005732;28;20197;-64
2023/03/28 02:21:01;;;;;;;5.83;1.80;;;2.30;99.90;;;;;;5006290;28;20304;-64
2023/03/28 02:23:34;;;;;;;3.43;1.03;;;2.30;99.90;;;;;;4989035;28;20414;-64
2023/03/28 02:26:01;;;;;;;9.77;1.10;;;2.30;99.90;;;;;;5017866;28;20322;-64
2023/03/28 02:28:30;;;;;;;3.27;1.17;;;2.30;99.90;;;;;;5013284;28;20229;-65
2023/03/28 02:30:57;;;;;;;7.20;1.37;;;2.30;99.90;;;;;;5012275;28;20795;-64
2023/03/28 02:33:36;;;;;;;2.80;1.20;;;2.30;99.90;;;;;;5017828;28;20212;-64
2023/03/28 02:36:22;;;;;;;6.90;1.27;;;2.30;99.90;;;;;;5007628;28;20582;-64
2023/03/28 02:38:59;;;;;;;5.27;1.33;;;2.30;99.90;;;;;;4986324;28;20564;-64
2023/03/28 02:41:34;;;;;;;7.47;1.23;;;2.30;99.90;;;;;;5003076;28;20203;-64
2023/03/28 02:44:16;;;;;;;6.93;1.20;;;2.40;99.90;;;;;;5023314;28;20200;-64
2023/03/28 02:46:54;;;;;;;5.83;1.23;;;2.40;99.90;;;;;;4992274;28;20224;-64
2023/03/28 02:49:29;;;;;;;5.80;1.43;;;2.40;99.90;;;;;;5020193;28;20196;-64
2023/03/28 02:52:08;;;;;;;5.33;1.03;;;2.40;99.90;;;;;;5002202;28;20924;-64
2023/03/28 02:54:43;;;;;;;2.17;1.03;;;2.50;99.90;;;;;;4985179;28;20211;-64
2023/03/28 02:57:15;;;;;;;8.57;1.60;;;2.40;99.90;;;;;;5021495;28;20725;-64
2023/03/28 02:59:46;;;;;;;3.37;1.03;;;2.50;99.90;;;;;;5001568;28;20542;-64
2023/03/28 03:02:16;;;;;;;4.63;1.40;;;2.40;99.90;;;;;;5012802;28;20210;-64
2023/03/28 03:04:44;;;;;;;6.33;1.43;;;2.40;99.90;;;;;;5015175;28;20413;-64
2023/03/28 03:07:11;;;;;;;8.27;1.63;;;2.40;99.90;;;;;;5006702;28;20285;-64
2023/03/28 03:09:39;;;;;;;8.30;1.30;;;2.30;99.90;;;;;;4975907;28;20201;-65
2023/03/28 03:12:06;;;;;;;5.70;1.17;;;2.30;99.90;;;;;;5015285;28;20255;-64
2023/03/28 03:14:35;;;;;;;6.73;1.47;;;2.30;99.90;;;;;;5004498;28;20194;-65
2023/03/28 03:17:04;;;;;;;3.13;1.17;;;2.20;99.90;;;;;;5011345;28;20346;-64
2023/03/28 03:19:31;;;;;;;4.70;1.00;;;2.20;99.90;;;;;;5016174;28;20590;-65
2023/03/28 03:21:58;;;;;;;8.17;1.00;;;2.20;99.90;;;;;;5000248;28;20426;-64
2023/03/28 03:24:25;;;;;;;7.50;1.40;;;2.30;99.90;;;;;;4994992;28;20204;-64
2023/03/28 03:26:53;;;;;;;3.60;1.20;;;2.20;99.90;;;;;;5000028;28;21022;-64
2023/03/28 03:29:20;;;;;;;4.30;1.20;;;2.30;99.90;;;;;;5015844;28;20231;-64
2023/03/28 03:31:46;;;;;;;5.10;1.30;;;2.30;99.90;;;;;;5000098;28;20200;-65
2023/03/28 03:34:13;;;;;;;5.87;1.57;;;2.20;99.90;;;;;;5006673;28;20419;-65
2023/03/28 03:36:41;;;;;;;2.77;1.20;;;2.20;99.90;;;;;;5001552;28;20208;-64
2023/03/28 03:39:08;;;;;;;5.97;1.17;;;2.20;99.90;;;;;;5004872;28;20623;-64
2023/03/28 03:41:35;;;;;;;2.17;0.80;;;2.20;99.90;;;;;;4985094;28;20213;-64
2023/03/28 03:44:03;;;;;;;5.30;1.23;;;2.20;99.90;;;;;;5016953;28;20303;-64
2023/03/28 03:46:30;;;;;;;5.20;2.40;;;2.10;99.90;;;;;;5005157;28;20375;-64
2023/03/28 03:48:57;;;;;;;4.30;1.30;;;2.10;99.90;;;;;;4996825;28;20208;-64
2023/03/28 03:51:23;;;;;;;6.03;1.40;;;2.00;99.90;;;;;;5000749;28;20205;-64
2023/03/28 03:53:50;;;;;;;6.60;1.67;;;2.00;99.90;;;;;;5010698;28;20212;-64
2023/03/28 03:56:17;;;;;;;4.20;1.13;;;2.00;99.90;;;;;;4983941;28;20216;-64
2023/03/28 03:58:44;;;;;;;5.57;1.13;;;2.00;99.90;;;;;;5003034;28;20552;-65
2023/03/28 04:01:13;;;;;;;11.07;1.10;;;2.00;99.90;;;;;;4991849;28;22853;-64
2023/03/28 04:03:40;;;;;;;6.57;1.13;;;2.10;99.90;;;;;;5022886;28;20475;-64
2023/03/28 04:06:08;;;;;;;5.40;1.40;;;2.10;99.90;;;;;;5011786;28;20423;-65
2023/03/28 04:08:34;;;;;;;5.00;1.40;;;2.10;99.90;;;;;;5004312;28;20209;-64
2023/03/28 04:11:02;;;;;;;2.67;1.27;;;2.00;99.90;;;;;;4974151;28;21484;-65
2023/03/28 04:13:28;;;;;;;4.33;1.23;;;2.00;99.90;;;;;;5026036;28;20202;-65
2023/03/28 04:15:55;;;;;;;5.63;1.60;;;2.00;99.90;;;;;;5014738;28;20548;-65
2023/03/28 04:18:23;;;;;;;5.53;1.47;;;2.00;99.90;;;;;;5028323;28;20643;-65
2023/03/28 04:20:54;;;;;;;6.73;1.47;;;1.80;99.90;;;;;;5018756;28;20203;-64
2023/03/28 04:23:24;;;;;;;7.10;1.37;;;2.10;99.90;;;;;;5002731;28;21808;-64
2023/03/28 04:25:54;;;;;;;8.63;1.37;;;2.10;99.90;;;;;;4987506;28;20700;-64
2023/03/28 04:28:23;;;;;;;2.03;0.93;;;2.20;99.90;;;;;;5021273;28;20251;-64
2023/03/28 04:30:53;;;;;;;10.90;1.90;;;2.20;99.90;;;;;;5024816;28;20215;-64
2023/03/28 04:33:23;;;;;;;6.47;1.40;;;2.30;99.90;;;;;;5003606;28;20239;-64
2023/03/28 04:35:55;;;;;;;6.57;1.53;;;2.30;99.90;;;;;;5022592;28;20209;-65
2023/03/28 04:38:25;;;;;;;2.23;1.27;;;2.30;99.90;;;;;;5001431;28;20225;-65
2023/03/28 04:40:56;;;;;;;7.23;1.60;;;2.30;99.90;;;;;;5010330;28;20199;-64
2023/03/28 04:43:23;;;;;;;7.47;1.00;;;2.40;99.90;;;;;;4985736;28;20803;-64
2023/03/28 04:45:50;;;;;;;3.80;1.17;;;2.40;99.90;;;;;;5005812;28;20225;-65
2023/03/28 04:48:17;;;;;;;9.50;1.80;;;2.40;99.90;;;;;;4997697;28;20241;-64
2023/03/28 04:50:44;;;;;;;8.40;1.40;;;2.40;99.90;;;;;;5010889;28;20212;-64
2023/03/28 04:53:12;;;;;;;7.57;1.60;;;2.60;99.90;;;;;;5007200;28;20730;-64
2023/03/28 04:55:39;;;;;;;5.07;1.80;;;2.80;99.90;;;;;;4986967;28;20896;-64
2023/03/28 04:58:06;;;;;;;6.80;1.97;;;2.70;99.90;;;;;;4993243;28;20480;-64
2023/03/28 05:00:33;;;;;;;5.50;1.00;;;2.60;99.90;;;;;;5013336;28;20231;-64
2023/03/28 05:03:00;;;;;;;11.57;1.43;;;2.60;99.90;;;;;;5021642;28;20228;-64
2023/03/28 05:05:26;;;;;;;10.37;1.93;;;2.60;99.90;;;;;;4982611;28;20201;-65
2023/03/28 05:07:53;;;;;;;8.20;1.50;;;2.60;99.90;;;;;;5020903;28;20221;-65
2023/03/28 05:10:21;;;;;;;10.30;1.80;;;2.50;99.90;;;;;;4999721;28;20232;-65
2023/03/28 05:12:48;;;;;;;4.80;1.30;;;2.70;99.90;;;;;;4981011;28;20228;-65
2023/03/28 05:15:15;;;;;;;6.27;1.50;;;2.60;99.90;;;;;;5010813;28;20218;-65
2023/03/28 05:17:42;;;;;;;2.00;1.13;;;2.50;99.90;;;;;;5006821;28;20232;-65
2023/03/28 05:20:10;;;;;;;4.37;1.30;;;2.40;99.90;;;;;;4999938;28;20222;-65
2023/03/28 05:22:37;;;;;;;6.27;1.47;;;2.40;99.90;;;;;;5011638;28;20925;-65
2023/03/28 05:25:07;;;;;;;6.53;1.57;;;2.40;99.90;;;;;;5010686;28;20201;-65
2023/03/28 05:27:37;;;;;;;7.03;1.70;;;2.40;99.90;;;;;;4977921;28;27617;-65
2023/03/28 05:30:04;;;;;;;5.90;1.53;;;2.40;99.90;;;;;;4986312;28;22633;-65
2023/03/28 05:32:32;;;;;;;4.50;1.20;;;2.40;99.90;;;;;;5007239;28;20204;-65
2023/03/28 05:34:58;;;;;;;4.17;1.17;;;2.50;99.90;;;;;;4989545;28;20829;-65
2023/03/28 05:37:25;;;;;;;9.50;1.33;;;2.50;99.90;;;;;;5008475;28;20217;-65
2023/03/28 05:39:52;;;;;;;3.93;1.07;;;2.50;99.90;;;;;;4997181;28;20770;-65
2023/03/28 05:42:19;;;;;;;8.40;1.57;;;2.30;99.90;;;;;;5005480;28;20202;-64
2023/03/28 05:44:48;;;;;;;2.67;1.20;;;2.60;99.90;;;;;;4985337;28;20205;-65
2023/03/28 05:47:15;;;;;;;13.07;1.50;;;2.60;99.90;;;;;;5001177;28;20248;-64
2023/03/28 05:49:42;;;;;;;15.33;2.00;;;2.60;99.90;;;;;;5011984;28;20203;-64
2023/03/28 05:52:09;;;;;;;10.60;1.63;;;2.70;99.90;;;;;;5001684;28;20210;-65
2023/03/28 05:54:35;;;;;;;3.27;1.40;;;2.70;99.90;;;;;;5016502;28;20202;-64
2023/03/28 05:57:02;;;;;;;5.47;1.90;;;2.70;99.90;;;;;;4998944;28;20201;-64
2023/03/28 05:59:31;;;;;;;4.53;0.97;;;2.70;99.90;;;;;;4983013;28;20304;-65
2023/03/28 06:02:00;;;;;;;4.90;1.37;;;2.70;99.90;;;;;;5001004;28;20201;-65
2023/03/28 06:04:27;;;;;;;3.70;1.17;;;2.70;99.90;;;;;;4974021;28;20564;-65
2023/03/28 06:06:54;;;;;;;3.30;1.30;;;2.60;99.90;;;;;;4954857;28;20365;-65
2023/03/28 06:09:21;;;;;;;15.20;2.00;;;2.60;99.90;;;;;;4999292;28;20249;-65
2023/03/28 06:11:48;;;;;;;8.37;1.93;;;2.60;99.90;;;;;;4996242;28;20517;-65
2023/03/28 06:14:14;;;;;;;3.13;1.13;;;2.60;99.90;;;;;;4957141;28;21027;-65
2023/03/28 06:16:41;;;;;;;5.50;1.40;;;2.50;99.90;;;;;;5012657;28;20204;-65
2023/03/28 06:19:10;;;;;;;6.30;1.50;;;2.50;99.90;;;;;;5001489;28;20896;-65
2023/03/28 06:21:36;;;;;;;3.47;1.30;;;2.50;99.90;;;;;;4996467;28;20289;-65
2023/03/28 06:24:03;;;;;;;6.93;1.67;;;2.50;99.90;;;;;;5005535;28;20763;-65
2023/03/28 06:26:30;;;;;;;3.87;1.27;;;2.50;99.90;;;;;;4987026;28;20204;-65
2023/03/28 06:28:57;;;;;;;6.83;1.60;;;2.60;99.90;;;;;;4970575;28;20240;-65
2023/03/28 06:31:25;;;;;;;3.83;1.27;;;2.60;99.90;;;;;;5003362;28;20636;-65
2023/03/28 06:33:52;;;;;;;9.63;1.50;;;2.60;99.90;;;;;;4998174;28;20205;-65
2023/03/28 06:36:20;;;;;;;14.90;2.23;;;2.60;99.90;;;;;;4982476;28;20208;-65
2023/03/28 06:38:48;;;;;;;5.33;1.50;;;2.70;99.90;;;;;;5011515;28;20206;-65
2023/03/28 06:41:15;;;;;;;11.47;1.90;;;2.70;99.90;;;;;;5022691;28;20252;-65
2023/03/28 06:43:42;;;;;;;4.90;1.67;;;2.60;99.90;;;;;;5000917;28;20484;-65
2023/03/28 06:46:10;;;;;;;6.63;1.63;;;2.70;99.90;;;;;;4984372;28;20889;-65
2023/03/28 06:48:37;;;;;;;4.80;1.23;;;2.70;99.90;;;;;;5001085;28;20224;-65
2023/03/28 06:51:04;;;;;;;7.93;1.67;;;2.70;99.90;;;;;;5004090;28;20671;-65
2023/03/28 06:53:34;;;;;;;8.10;2.00;;;2.60;99.90;;;;;;4985741;28;21477;-65
2023/03/28 06:56:01;;;;;;;10.37;1.87;;;2.60;99.90;;;;;;5020495;28;20335;-65
2023/03/28 06:58:28;;;;;;;4.10;1.30;;;2.70;99.90;;;;;;5004959;28;20204;-65
2023/03/28 07:00:58;;;;;;;9.90;1.77;;;2.80;99.90;;;;;;4986601;28;20205;-65
2023/03/28 07:03:25;;;;;;;4.50;1.27;;;2.80;99.90;;;;;;5020062;28;20204;-65
2023/03/28 07:05:51;;;;;;;9.50;1.60;;;2.90;99.90;;;;;;5017439;28;20204;-65
2023/03/28 07:08:18;;;;;;;6.17;1.43;;;3.00;99.90;;;;;;4988951;28;20232;-65
2023/03/28 07:10:47;;;;;;;7.40;1.83;;;3.10;99.90;;;;;;5013597;28;20206;-65
2023/03/28 07:13:14;;;;;;;8.90;1.70;;;3.20;99.90;;;;;;4999092;28;20328;-65
2023/03/28 07:15:41;;;;;;;7.80;1.37;;;3.30;99.90;;;;;;5020511;28;20209;-65
2023/03/28 07:18:09;;;;;;;4.27;1.33;;;3.40;99.90;;;;;;4970398;28;20492;-64
2023/03/28 07:20:38;;;;;;;2.63;1.50;;;3.50;99.90;;;;;;5010143;28;20219;-65
2023/03/28 07:23:05;;;;;;;5.10;1.47;;;3.60;99.90;;;;;;4997891;28;20205;-65
2023/03/28 07:25:32;;;;;;;4.17;1.33;;;3.60;99.90;;;;;;5006497;28;20201;-64
2023/03/28 07:28:01;;;;;;;7.63;2.03;;;3.60;99.90;;;;;;4993200;28;20432;-65
2023/03/28 07:30:28;;;;;;;9.00;2.10;;;3.60;99.90;;;;;;5006005;28;20571;-65
2023/03/28 07:32:55;;;;;;;5.30;1.87;;;3.60;99.90;;;;;;4972857;28;20838;-65
2023/03/28 07:35:21;;;;;;;8.10;1.60;;;3.60;99.90;;;;;;5013224;28;20898;-64
2023/03/28 07:37:48;;;;;;;12.77;2.03;;;3.60;99.90;;;;;;5013036;28;20185;-64
2023/03/28 07:40:15;;;;;;;8.87;2.17;;;3.50;99.90;;;;;;4991141;28;20232;-64
2023/03/28 07:42:42;;;;;;;5.43;1.67;;;3.60;99.90;;;;;;5020834;28;20736;-64
2023/03/28 07:45:11;;;;;;;4.67;1.43;;;3.60;99.90;;;;;;5002837;28;21055;-64
2023/03/28 07:47:38;;;;;;;6.80;1.90;;;3.70;99.90;;;;;;4992409;28;20832;-64
2023/03/28 07:50:06;;;;;;;9.27;2.00;;;3.70;99.90;;;;;;5010325;28;20708;-65
2023/03/28 07:52:33;;;;;;;10.40;2.47;;;3.70;99.90;;;;;;5010705;28;20322;-64
2023/03/28 07:55:00;;;;;;;5.73;1.67;;;3.80;99.90;;;;;;4973136;28;21062;-64
2023/03/28 07:57:27;;;;;;;11.07;1.93;;;3.90;99.90;;;;;;5015580;28;20201;-65
2023/03/28 07:59:55;;;;;;;8.37;1.70;;;4.00;99.90;;;;;;4986054;28;20206;-65
2023/03/28 08:02:24;;;;;;;11.00;2.50;;;4.00;99.90;;;;;;5010563;28;20762;-65
2023/03/28 08:04:52;;;;;;;8.27;1.87;;;4.10;99.90;;;;;;4971910;28;20332;-65
2023/03/28 08:07:19;;;;;;;14.10;3.17;;;4.10;99.90;;;;;;5025009;28;23997;-65
2023/03/28 08:09:49;;;;;;;6.27;1.90;;;4.20;99.90;;;;;;4997252;28;20695;-65
2023/03/28 08:12:18;;;;;;;6.17;1.90;;;4.30;99.90;;;;;;5006736;28;20227;-65
2023/03/28 08:14:45;;;;;;;10.43;2.13;;;4.30;99.90;;;;;;4976776;28;20268;-65
2023/03/28 08:17:12;;;;;;;8.57;1.67;;;4.50;99.90;;;;;;4975412;28;20349;-66
2023/03/28 08:19:40;;;;;;;9.70;2.43;;;4.60;99.90;;;;;;4940448;28;20245;-65
2023/03/28 08:22:09;;;;;;;6.70;1.87;;;4.60;99.90;;;;;;5020981;28;20702;-65
2023/03/28 08:24:36;;;;;;;9.47;1.90;;;4.60;99.90;;;;;;5005305;28;20225;-65
2023/03/28 08:27:03;;;;;;;7.83;1.80;;;4.60;99.90;;;;;;4989012;28;21020;-65
2023/03/28 08:29:30;;;;;;;12.37;1.80;;;4.70;99.90;;;;;;4988720;28;20232;-65
2023/03/28 08:31:57;;;;;;;10.00;1.67;;;4.80;99.90;;;;;;5004187;28;20461;-65
2023/03/28 08:34:24;;;;;;;7.07;2.07;;;5.00;99.90;;;;;;4987057;28;20724;-65
2023/03/28 08:36:52;;;;;;;5.53;1.87;;;5.00;99.90;;;;;;5006464;28;20201;-65
2023/03/28 08:39:19;;;;;;;7.37;1.67;;;5.10;99.90;;;;;;5017761;28;20289;-65
2023/03/28 08:42:18;;;;;;;9.23;2.07;;;5.20;99.90;;;;;;5000234;28;20218;-65
2023/03/28 08:44:56;;;;;;;8.07;2.03;;;5.30;99.90;;;;;;4986826;28;20236;-65
2023/03/28 08:47:29;;;;;;;8.63;2.27;;;5.40;99.90;;;;;;5003286;28;20209;-65
2023/03/28 08:50:01;;;;;;;8.43;1.53;;;5.50;99.90;;;;;;4955617;28;20626;-66
2023/03/28 08:52:29;;;;;;;7.60;1.40;;;5.70;99.90;;;;;;5013594;28;20201;-65
2023/03/28 08:55:01;;;;;;;4.37;1.27;;;5.90;99.90;;;;;;5012032;28;20750;-65
2023/03/28 08:57:32;;;;;;;6.77;1.87;;;5.90;99.90;;;;;;5002290;28;20207;-65
2023/03/28 09:00:08;;;;;;;4.87;1.70;;;5.90;99.90;;;;;;4999593;28;20609;-65
2023/03/28 09:02:35;;;;;;;9.67;1.83;;;5.90;99.90;;;;;;5017904;28;20755;-65
2023/03/28 09:05:02;;;;;;;8.07;1.63;;;5.70;99.90;;;;;;4987835;28;20372;-65
2023/03/28 09:07:37;;;;;;;9.30;1.80;;;5.70;99.90;;;;;;5010364;28;20202;-65
2023/03/28 09:10:15;;;;;;;5.23;1.63;;;5.60;99.90;;;;;;5013423;28;20219;-65
2023/03/28 09:12:53;;;;;;;6.33;1.63;;;5.70;99.90;;;;;;5005338;28;20203;-65
2023/03/28 09:15:30;;;;;;;7.73;1.93;;;5.70;99.90;;;;;;5000731;28;20227;-65
2023/03/28 09:18:11;;;;;;;5.77;1.50;;;5.70;99.90;;;;;;5013774;28;20737;-65
2023/03/28 09:20:46;;;;;;;6.97;1.60;;;5.70;99.90;;;;;;4988872;28;20216;-66
2023/03/28 09:23:25;;;;;;;8.13;2.33;;;5.80;99.90;;;;;;5009759;28;21644;-65
2023/03/28 09:25:59;;;;;;;11.23;1.73;;;6.00;99.90;;;;;;5002495;28;20215;-65
2023/03/28 09:28:36;;;;;;;8.93;1.50;;;6.00;99.90;;;;;;5013992;28;20237;-65
2023/03/28 09:31:07;;;;;;;8.27;2.10;;;5.90;99.90;;;;;;4985315;28;20326;-66
2023/03/28 09:33:36;;;;;;;12.47;1.97;;;6.10;99.90;;;;;;5001536;28;20724;-65
2023/03/28 09:36:10;;;;;;;7.00;1.60;;;6.20;99.90;;;;;;4977206;28;20205;-66
2023/03/28 09:38:44;;;;;;;19.60;1.67;;;6.20;99.90;;;;;;5008189;28;20476;-65
2023/03/28 09:41:16;;;;;;;11.73;1.90;;;6.20;99.90;;;;;;5017042;28;20744;-65
2023/03/28 09:43:47;;;;;;;7.87;1.53;;;6.20;99.90;;;;;;5003058;28;20201;-65
2023/03/28 09:46:21;;;;;;;5.20;1.10;;;6.30;99.90;;;;;;5016716;28;20232;-65
2023/03/28 09:48:48;;;;;;;5.17;1.60;;;6.30;99.90;;;;;;4992649;28;20252;-65
2023/03/28 09:51:17;;;;;;;15.33;1.60;;;6.30;99.90;;;;;;5014070;28;20197;-65
2023/03/28 09:53:46;;;;;;;6.13;1.43;;;6.40;99.90;;;;;;4967160;28;20228;-65
2023/03/28 09:56:23;;;;;;;5.37;1.50;;;6.60;99.90;;;;;;5017506;28;20395;-65
2023/03/28 09:58:52;;;;;;;4.97;1.80;;;6.60;99.90;;;;;;4996783;28;20574;-65
2023/03/28 10:01:30;;;;;;;2.97;1.10;;;6.70;99.90;;;;;;5016340;28;20226;-65
2023/03/28 10:03:58;;;;;;;11.83;1.60;;;6.80;99.90;;;;;;4995392;28;20225;-65
2023/03/28 10:06:27;;;;;;;7.70;1.63;;;6.80;99.90;;;;;;5020519;28;20205;-65
2023/03/28 10:09:09;;;;;;;3.50;1.50;;;6.90;99.90;;;;;;4969121;28;20568;-65
2023/03/28 10:11:47;;;;;;;5.20;1.50;;;6.90;99.90;;;;;;5011978;28;20297;-65
2023/03/28 10:14:29;;;;;;;4.70;1.57;;;6.90;99.90;;;;;;4999876;28;20517;-65
2023/03/28 10:16:57;;;;;;;8.10;1.30;;;6.90;99.90;;;;;;5001931;28;20362;-65
2023/03/28 10:19:25;;;;;;;5.13;1.63;;;6.90;99.90;;;;;;4991925;28;20714;-65
2023/03/28 10:21:52;;;;;;;9.33;2.13;;;7.00;99.90;;;;;;5014501;28;20201;-65
2023/03/28 10:24:22;;;;;;;3.97;1.33;;;7.10;99.90;;;;;;4974550;28;20213;-66
2023/03/28 10:26:49;;;;;;;7.17;1.70;;;7.20;99.90;;;;;;5001737;28;20260;-65
2023/03/28 10:29:16;;;;;;;4.70;1.50;;;7.10;99.90;;;;;;4996453;28;20249;-65
2023/03/28 10:31:49;;;;;;;6.07;1.50;;;7.00;99.90;;;;;;5016159;28;20213;-65
2023/03/28 10:34:27;;;;;;;9.43;1.47;;;7.00;99.90;;;;;;4998420;28;20226;-65
2023/03/28 10:36:54;;;;;;;3.60;1.23;;;7.00;99.90;;;;;;5010857;28;20578;-65
2023/03/28 10:39:25;;;;;;;6.37;1.73;;;7.00;99.90;;;;;;4963714;28;20552;-65
2023/03/28 10:41:53;;;;;;;7.90;1.43;;;7.00;99.90;;;;;;5017504;28;20202;-65
2023/03/28 10:44:27;;;;;;;4.50;1.40;;;7.00;99.90;;;;;;4996871;28;20817;-65
2023/03/28 10:46:56;;;;;;;8.50;1.20;;;7.10;99.90;;;;;;5019853;28;20206;-65
2023/03/28 10:49:23;;;;;;;2.30;1.20;;;7.00;99.90;;;;;;4993208;28;20780;-65
2023/03/28 10:51:51;;;;;;;10.93;1.50;;;7.00;99.90;;;;;;5015925;28;20204;-65
2023/03/28 10:54:43;;;;;;;7.00;1.60;;;6.90;99.90;;;;;;4984406;28;20786;-65
2023/03/28 10:57:19;;;;;;;3.97;1.43;;;7.00;99.90;;;;;;5013394;28;20551;-64
2023/03/28 10:59:59;;;;;;;5.93;1.40;;;7.10;99.90;;;;;;5016833;28;20593;-64
2023/03/28 11:02:50;;;;;;;5.03;1.13;;;7.00;99.90;;;;;;4995055;28;20313;-64
2023/03/28 11:05:34;;;;;;;4.27;1.27;;;7.00;99.90;;;;;;4995413;28;20427;-64
2023/03/28 11:08:08;;;;;;;5.20;1.40;;;7.00;99.90;;;;;;5017255;28;20202;-64
2023/03/28 11:10:42;;;;;;;6.27;1.20;;;7.20;99.90;;;;;;4987406;28;21624;-65
2023/03/28 11:13:22;;;;;;;4.57;1.40;;;7.00;99.90;;;;;;5013574;28;20197;-65
2023/03/28 11:15:57;;;;;;;4.70;1.50;;;7.00;99.90;;;;;;5001041;28;20676;-64
2023/03/28 11:18:44;;;;;;;3.90;1.30;;;7.00;99.90;;;;;;5011928;28;20513;-64
2023/03/28 11:21:33;;;;;;;6.17;1.30;;;7.00;99.90;;;;;;4993610;28;20205;-64
2023/03/28 11:24:13;;;;;;;3.87;1.33;;;7.10;99.90;;;;;;5010141;28;21506;-65
2023/03/28 11:26:48;;;;;;;5.80;1.47;;;7.20;99.90;;;;;;4978897;28;20208;-64
2023/03/28 11:29:24;;;;;;;4.70;1.43;;;7.40;99.90;;;;;;5010870;28;20237;-64
2023/03/28 11:32:02;;;;;;;3.00;1.60;;;7.50;99.90;;;;;;5000566;28;20758;-65
2023/03/28 11:34:32;;;;;;;5.53;1.30;;;7.70;99.90;;;;;;5007167;28;20395;-64
2023/03/28 11:37:05;;;;;;;2.63;1.43;;;7.70;99.90;;;;;;4996493;28;20205;-65
2023/03/28 11:39:41;;;;;;;5.03;1.20;;;7.70;99.90;;;;;;4983408;28;20292;-64
2023/03/28 11:42:14;;;;;;;3.17;1.60;;;7.50;99.90;;;;;;4985688;28;20228;-64
2023/03/28 11:44:49;;;;;;;2.97;1.20;;;7.40;99.90;;;;;;5001807;28;20243;-64
2023/03/28 11:47:21;;;;;;;8.33;2.00;;;7.30;99.90;;;;;;5001658;28;20240;-64
2023/03/28 11:49:54;;;;;;;2.90;1.57;;;7.30;99.90;;;;;;4994266;28;20431;-65
2023/03/28 11:52:28;;;;;;;9.67;1.43;;;7.20;99.90;;;;;;4985982;28;20231;-65
2023/03/28 11:55:03;;;;;;;3.60;1.20;;;7.20;99.90;;;;;;4991988;28;20229;-65
2023/03/28 11:57:38;;;;;;;4.50;1.30;;;7.20;99.90;;;;;;4974542;28;20466;-65
2023/03/28 12:00:12;;;;;;;4.03;1.17;;;7.30;99.90;;;;;;5010668;28;20217;-64
2023/03/28 12:02:42;;;;;;;3.97;1.17;;;7.30;99.90;;;;;;4980510;28;20876;-64
2023/03/28 12:05:19;;;;;;;7.20;2.13;;;7.30;99.90;;;;;;5017677;28;20201;-64
2023/03/28 12:07:52;;;;;;;5.23;1.30;;;7.40;99.90;;;;;;4991149;28;20894;-64
2023/03/28 12:10:23;;;;;;;4.83;1.50;;;7.40;99.90;;;;;;5017963;28;20789;-64
2023/03/28 12:13:03;;;;;;;5.47;1.80;;;7.40;99.90;;;;;;4981568;28;21089;-64
2023/03/28 12:15:37;;;;;;;2.53;1.20;;;7.50;99.90;;;;;;5007851;28;20202;-64
2023/03/28 12:18:10;;;;;;;6.07;2.00;;;7.50;99.90;;;;;;4996405;28;20206;-64
2023/03/28 12:20:44;;;;;;;4.47;1.07;;;7.50;99.90;;;;;;5014140;28;20263;-64
2023/03/28 12:23:21;;;;;;;9.53;2.13;;;7.50;99.90;;;;;;4983246;28;20197;-64
2023/03/28 12:25:56;;;;;;;10.77;1.80;;;7.50;99.90;;;;;;5006575;28;20501;-64
2023/03/28 12:28:31;;;;;;;6.87;1.70;;;7.70;99.90;;;;;;4985663;28;20233;-64
2023/03/28 12:31:05;;;;;;;6.03;1.23;;;7.70;99.90;;;;;;5000666;28;21335;-64
2023/03/28 12:33:44;;;;;;;7.07;1.50;;;7.70;99.90;;;;;;4997628;28;20219;-64
2023/03/28 12:36:19;;;;;;;4.70;1.40;;;7.70;99.90;;;;;;5022347;28;20564;-64
2023/03/28 12:38:53;;;;;;;4.73;1.67;;;7.70;99.90;;;;;;4982059;28;20470;-64
2023/03/28 12:41:24;;;;;;;3.90;1.20;;;7.70;99.90;;;;;;5022445;28;20197;-64
2023/03/28 12:43:55;;;;;;;6.27;1.60;;;7.70;99.90;;;;;;4982303;28;20401;-64
2023/03/28 12:46:27;;;;;;;6.27;1.20;;;7.70;99.90;;;;;;5023138;28;20197;-64
2023/03/28 12:48:58;;;;;;;4.63;1.03;;;7.60;99.90;;;;;;4993160;28;21636;-64
2023/03/28 12:51:34;;;;;;;9.40;1.53;;;7.50;99.90;;;;;;5019600;28;20201;-64
2023/03/28 12:54:07;;;;;;;6.93;1.47;;;7.50;99.90;;;;;;4989503;28;20873;-64
2023/03/28 12:56:34;;;;;;;8.50;1.63;;;7.50;99.90;;;;;;5024873;28;21028;-64
2023/03/28 12:59:15;;;;;;;7.43;1.70;;;7.40;99.90;;;;;;4987125;28;20356;-64
2023/03/28 13:01:46;;;;;;;6.37;1.53;;;7.40;99.90;;;;;;4988785;28;20229;-64
2023/03/28 13:04:21;;;;;;;8.80;1.27;;;7.30;99.90;;;;;;4987997;28;20599;-64
2023/03/28 13:06:58;;;;;;;7.90;1.73;;;7.30;99.90;;;;;;4997236;28;20212;-64
2023/03/28 13:09:42;;;;;;;7.17;1.90;;;7.30;99.90;;;;;;4999815;28;20221;-64
2023/03/28 13:12:27;;;;;;;5.63;1.70;;;7.20;99.90;;;;;;4999484;28;20193;-64
2023/03/28 13:15:00;;;;;;;6.47;1.57;;;7.20;99.90;;;;;;4977855;28;21128;-64